createdAt,value
2019-05-02T00:04:57.090Z,175.38
2019-05-02T00:10:20.023Z,143.57
2019-05-02T00:15:39.179Z,132.87
2019-05-02T00:21:01.436Z,153.90
2019-05-02T00:26:18.523Z,168.43
2019-05-02T00:31:37.170Z,135.47
2019-05-02T00:36:57.271Z,133.37
2019-05-02T00:42:17.692Z,136.90
2019-05-02T00:47:47.899Z,132.40
2019-05-02T00:53:07.163Z,178.00
2019-05-02T00:58:27.313Z,166.83
2019-05-02T01:03:51.902Z,140.37
2019-05-02T01:09:10.955Z,145.13
2019-05-02T01:14:31.754Z,146.67
2019-05-02T01:19:51.460Z,135.20
2019-05-02T01:25:15.032Z,145.40
2019-05-02T01:30:42.437Z,148.07
2019-05-02T01:36:06.513Z,142.20
2019-05-02T01:41:24.026Z,171.90
2019-05-02T01:46:43.812Z,164.53
2019-05-02T01:52:02.420Z,141.00
2019-05-02T01:57:21.007Z,153.67
2019-05-02T02:02:39.556Z,150.20
2019-05-02T02:07:58.198Z,147.83
2019-05-02T02:13:16.781Z,152.13
2019-05-02T02:18:37.065Z,153.03
2019-05-02T02:24:03.523Z,138.70
2019-05-02T02:29:22.166Z,122.60
2019-05-02T02:34:40.839Z,161.73
2019-05-02T02:39:59.486Z,162.73
2019-05-02T02:45:51.782Z,137.18
2019-05-02T02:51:07.820Z,139.10
2019-05-02T02:56:26.481Z,141.27
2019-05-02T03:01:45.264Z,159.90
2019-05-02T03:07:04.168Z,174.90
2019-05-02T03:12:24.495Z,144.03
2019-05-02T03:17:43.294Z,126.23
2019-05-02T03:23:02.245Z,134.73
2019-05-02T03:28:21.127Z,190.57
2019-05-02T03:33:54.791Z,225.30
2019-05-02T03:39:13.582Z,179.47
2019-05-02T03:44:26.109Z,182.93
2019-05-02T03:49:48.939Z,162.73
2019-05-02T03:55:02.667Z,192.87
2019-05-02T04:00:24.049Z,169.60
2019-05-02T04:05:42.343Z,152.97
2019-05-02T04:11:19.226Z,158.33
2019-05-02T04:16:38.326Z,171.83
2019-05-02T04:22:01.508Z,167.53
2019-05-02T04:27:18.303Z,197.33
2019-05-02T04:32:36.893Z,201.73
2019-05-02T04:37:59.097Z,191.87
2019-05-02T04:43:18.366Z,182.40
2019-05-02T04:48:43.832Z,190.80
2019-05-02T04:53:58.825Z,180.90
2019-05-02T04:59:21.868Z,187.47
2019-05-02T05:04:42.454Z,215.63
2019-05-02T05:10:03.140Z,187.97
2019-05-02T05:15:33.915Z,218.90
2019-05-02T05:20:40.469Z,197.50
2019-05-02T05:26:03.252Z,187.27
2019-05-02T05:31:24.192Z,178.70
2019-05-02T05:36:40.463Z,187.03
2019-05-02T05:41:59.111Z,180.17
2019-05-02T05:47:21.301Z,247.60
2019-05-02T05:52:42.269Z,183.07
2019-05-02T05:58:01.356Z,124.73
2019-05-02T06:03:19.257Z,106.30
2019-05-02T06:08:37.771Z,124.17
2019-05-02T06:13:56.425Z,94.07
2019-05-02T06:19:17.848Z,111.27
2019-05-02T06:24:35.374Z,102.93
2019-05-02T06:29:56.052Z,99.00
2019-05-02T06:35:17.187Z,97.50
2019-05-02T06:40:39.414Z,91.87
2019-05-02T06:45:55.345Z,95.00
2019-05-02T06:51:19.588Z,99.40
2019-05-02T06:56:34.408Z,105.33
2019-05-02T07:01:57.434Z,113.87
2019-05-02T07:07:13.687Z,111.27
2019-05-02T07:12:32.889Z,88.70
2019-05-02T07:17:52.376Z,83.03
2019-05-02T07:23:16.188Z,74.03
2019-05-02T07:28:31.463Z,89.40
2019-05-02T07:33:50.103Z,93.37
2019-05-02T07:39:10.809Z,87.40
2019-05-02T07:44:32.598Z,85.57
2019-05-02T07:49:49.734Z,84.20
2019-05-02T07:55:10.180Z,88.17
2019-05-02T08:00:32.055Z,86.17
2019-05-02T08:05:49.384Z,95.63
2019-05-02T08:11:07.953Z,75.17
2019-05-02T08:16:27.463Z,82.10
2019-05-02T08:21:46.972Z,82.10
2019-05-02T08:27:07.234Z,85.07
2019-05-02T08:32:27.408Z,79.63
2019-05-02T08:37:46.362Z,83.60
2019-05-02T08:43:09.277Z,77.17
2019-05-02T08:48:25.523Z,68.50
2019-05-02T08:53:44.117Z,73.53
2019-05-02T08:59:02.672Z,78.77
2019-05-02T09:04:24.095Z,83.17
2019-05-02T09:09:42.004Z,81.40
2019-05-02T09:15:02.715Z,81.73
2019-05-02T09:20:23.624Z,90.20
2019-05-02T09:25:42.976Z,90.10
2019-05-02T09:31:05.579Z,89.43
2019-05-02T09:36:22.812Z,94.17
2019-05-02T09:41:41.906Z,88.40
2019-05-02T09:47:02.386Z,88.33
2019-05-02T09:52:22.227Z,80.67
2019-05-02T09:57:42.748Z,89.23
2019-05-02T10:03:02.714Z,85.90
2019-05-02T10:08:22.985Z,80.70
2019-05-02T10:13:42.433Z,66.17
2019-05-02T10:19:09.257Z,72.60
2019-05-02T10:24:22.262Z,78.47
2019-05-02T10:29:41.850Z,83.50
2019-05-02T10:35:02.121Z,85.27
2019-05-02T10:40:22.508Z,86.43
2019-05-02T10:45:47.425Z,77.37
2019-05-02T10:51:25.613Z,83.43
2019-05-02T10:56:42.352Z,74.10
2019-05-02T11:02:12.852Z,79.23
2019-05-02T11:07:32.693Z,84.10
2019-05-02T11:12:56.125Z,84.37
2019-05-02T11:18:14.407Z,76.67
2019-05-02T11:23:33.111Z,74.90
2019-05-02T11:28:52.233Z,77.50
2019-05-02T11:34:12.385Z,77.63
2019-05-02T11:39:40.653Z,70.90
2019-05-02T11:44:52.389Z,66.30
2019-05-02T11:50:11.965Z,71.85
2019-05-02T11:55:31.909Z,71.67
2019-05-02T12:00:52.283Z,79.13
2019-05-02T12:06:19.144Z,71.80
2019-05-02T12:11:32.430Z,74.63
2019-05-02T12:16:52.746Z,72.57
2019-05-02T12:22:12.933Z,64.90
2019-05-02T12:27:31.967Z,65.03
2019-05-02T12:32:52.980Z,64.87
2019-05-02T12:38:12.173Z,60.13
2019-05-02T12:43:31.911Z,61.87
2019-05-02T12:48:51.985Z,59.90
2019-05-02T12:54:12.409Z,63.37
2019-05-02T12:59:32.212Z,53.77
2019-05-02T13:04:52.710Z,53.83
2019-05-02T13:10:14.704Z,60.30
2019-05-02T13:15:33.471Z,59.67
2019-05-02T13:20:52.860Z,68.63
2019-05-02T13:26:20.019Z,60.70
2019-05-02T13:31:34.308Z,64.57
2019-05-02T13:36:54.401Z,62.63
2019-05-02T13:42:13.785Z,59.27
2019-05-02T13:47:32.626Z,61.97
2019-05-02T13:52:56.520Z,55.33
2019-05-02T13:58:11.877Z,55.53
2019-05-02T14:03:32.505Z,47.97
2019-05-02T14:08:53.355Z,51.03
2019-05-02T14:14:12.143Z,51.70
2019-05-02T14:19:31.914Z,48.33
2019-05-02T14:24:51.930Z,47.10
2019-05-02T14:30:12.174Z,45.87
2019-05-02T14:35:32.725Z,47.53
2019-05-02T14:41:03.337Z,41.67
2019-05-02T14:46:23.391Z,58.83
2019-05-02T14:51:42.098Z,75.73
2019-05-02T14:57:02.286Z,83.97
2019-05-02T15:02:22.983Z,102.30
2019-05-02T15:07:42.135Z,102.60
2019-05-02T15:13:01.928Z,113.83
2019-05-02T15:18:22.772Z,123.07
2019-05-02T15:23:42.311Z,128.93
2019-05-02T15:29:01.933Z,132.03
2019-05-02T15:34:35.506Z,124.53
2019-05-02T15:45:15.169Z,117.40
2019-05-02T15:50:33.803Z,123.00
2019-05-02T15:55:52.724Z,124.57
2019-05-02T16:01:14.234Z,119.73
2019-05-02T16:06:33.901Z,121.43
2019-05-02T16:11:56.761Z,116.60
2019-05-02T16:17:17.727Z,123.65
2019-05-02T16:22:38.307Z,119.77
2019-05-02T16:27:57.499Z,37.33
2019-05-02T16:33:19.695Z,31.27
2019-05-02T16:38:35.227Z,42.70
2019-05-02T16:43:54.592Z,35.83
2019-05-02T16:49:16.858Z,34.70
2019-05-02T16:54:41.559Z,27.73
2019-05-02T17:00:01.502Z,32.45
2019-05-02T17:05:14.961Z,28.32
2019-05-02T17:10:47.433Z,33.80
2019-05-02T17:16:13.115Z,35.53
2019-05-02T17:21:26.948Z,31.83
2019-05-02T17:26:47.260Z,34.23
2019-05-02T17:32:08.774Z,36.50
2019-05-02T17:37:26.436Z,42.40
2019-05-02T17:42:45.124Z,41.63
2019-05-02T17:48:09.878Z,47.50
2019-05-02T17:53:24.569Z,42.47
2019-05-02T17:58:47.470Z,41.23
2019-05-02T18:04:06.993Z,53.93
2019-05-02T18:09:26.248Z,58.30
2019-05-02T18:14:44.450Z,64.40
2019-05-02T18:20:05.929Z,62.83
2019-05-02T18:25:25.188Z,76.30
2019-05-02T18:30:44.006Z,73.87
2019-05-02T18:36:02.679Z,85.65
2019-05-02T18:41:22.419Z,108.27
2019-05-02T18:46:42.620Z,96.73
2019-05-02T18:52:01.834Z,110.30
2019-05-02T18:57:24.467Z,122.53
2019-05-02T19:02:42.476Z,137.37
2019-05-02T19:08:02.628Z,132.87
2019-05-02T19:13:22.307Z,149.00
2019-05-02T19:18:42.509Z,141.50
2019-05-02T19:24:02.311Z,142.33
2019-05-02T19:29:28.697Z,139.03
2019-05-02T19:34:47.281Z,142.07
2019-05-02T19:40:09.731Z,129.50
2019-05-02T19:45:28.602Z,133.27
2019-05-02T19:50:47.281Z,141.33
2019-05-02T19:56:06.750Z,128.00
2019-05-02T20:01:26.625Z,131.63
2019-05-02T20:06:48.741Z,137.07
2019-05-02T20:12:09.653Z,140.67
2019-05-02T20:17:28.041Z,156.15
2019-05-02T20:22:47.188Z,125.10
2019-05-02T20:28:06.308Z,131.18
2019-05-02T20:33:24.957Z,121.13
2019-05-02T20:38:43.977Z,122.27
2019-05-02T20:44:05.680Z,77.53
2019-05-02T20:49:24.669Z,49.67
2019-05-02T20:54:43.726Z,39.03
2019-05-02T21:00:02.550Z,37.53
2019-05-02T21:05:24.823Z,18.00
2019-05-02T21:10:52.289Z,16.50
2019-05-02T21:16:12.522Z,18.43
2019-05-02T21:21:33.535Z,17.63
2019-05-02T21:26:52.726Z,22.57
2019-05-02T21:32:12.022Z,19.97
2019-05-02T21:37:31.993Z,19.67
2019-05-02T21:42:53.814Z,26.40
2019-05-02T21:48:14.866Z,20.50
2019-05-02T21:53:35.520Z,24.67
2019-05-02T21:59:12.937Z,15.57
2019-05-02T22:04:31.912Z,20.20
2019-05-02T22:09:52.255Z,18.60
2019-05-02T22:15:12.743Z,19.40
2019-05-02T22:20:32.101Z,20.27
2019-05-02T22:25:52.538Z,13.97
2019-05-02T22:31:12.376Z,25.13
2019-05-02T22:36:32.736Z,15.37
2019-05-02T22:41:52.600Z,17.73
2019-05-02T22:47:11.800Z,16.03
2019-05-02T22:52:32.320Z,20.47
2019-05-02T22:57:51.781Z,15.23
2019-05-02T23:03:12.553Z,17.13
2019-05-02T23:08:31.360Z,16.87
2019-05-02T23:13:51.761Z,18.97
2019-05-02T23:19:12.319Z,16.47
2019-05-02T23:24:49.159Z,15.77
2019-05-02T23:30:11.588Z,16.83
2019-05-02T23:35:31.983Z,19.27
2019-05-02T23:40:52.610Z,14.90
2019-05-02T23:46:11.611Z,21.63
2019-05-02T23:51:32.096Z,17.90
2019-05-02T23:56:50.891Z,16.60
